sensor_id;sensor_type;location;lat;lon;timestamp;pressure;altitude;pressure_sealevel;temperature;humidity
54042;BME280;41156;51.508;5.406;2023-03-01T00:00:33;102990.75;;;-1.74;82.98
54042;BME280;41156;51.508;5.406;2023-03-01T00:03:34;102982.94;;;-1.77;83.78
54042;BME280;41156;51.508;5.406;2023-03-01T00:06:34;102983.03;;;-1.79;84.56
54042;BME280;41156;51.508;5.406;2023-03-01T00:09:36;102987.66;;;-1.82;84.22
54042;BME280;41156;51.508;5.406;2023-03-01T00:12:37;102994.91;;;-1.86;83.82
54042;BME280;41156;51.508;5.406;2023-03-01T00:15:41;102992.50;;;-1.91;85.14
54042;BME280;41156;51.508;5.406;2023-03-01T00:18:41;102995.28;;;-1.94;83.35
54042;BME280;41156;51.508;5.406;2023-03-01T00:21:42;102990.78;;;-1.92;84.79
54042;BME280;41156;51.508;5.406;2023-03-01T00:24:42;102989.84;;;-1.91;84.46
54042;BME280;41156;51.508;5.406;2023-03-01T00:27:43;102989.69;;;-1.88;84.13
54042;BME280;41156;51.508;5.406;2023-03-01T00:30:43;102991.38;;;-1.87;84.41
54042;BME280;41156;51.508;5.406;2023-03-01T00:33:44;102979.94;;;-1.87;85.23
54042;BME280;41156;51.508;5.406;2023-03-01T00:36:44;102989.84;;;-1.91;85.15
54042;BME280;41156;51.508;5.406;2023-03-01T00:39:44;102991.88;;;-1.96;84.56
54042;BME280;41156;51.508;5.406;2023-03-01T00:42:44;102993.91;;;-2.01;84.74
54042;BME280;41156;51.508;5.406;2023-03-01T00:45:45;102986.19;;;-2.06;85.41
54042;BME280;41156;51.508;5.406;2023-03-01T00:48:45;102992.69;;;-2.11;84.49
54042;BME280;41156;51.508;5.406;2023-03-01T00:51:45;102984.88;;;-2.14;84.82
54042;BME280;41156;51.508;5.406;2023-03-01T00:54:46;102981.53;;;-2.18;84.92
54042;BME280;41156;51.508;5.406;2023-03-01T00:57:46;102971.19;;;-2.22;85.76
54042;BME280;41156;51.508;5.406;2023-03-01T01:00:46;102974.75;;;-2.24;86.28
54042;BME280;41156;51.508;5.406;2023-03-01T01:03:53;102967.75;;;-2.25;86.31
54042;BME280;41156;51.508;5.406;2023-03-01T01:06:53;102967.84;;;-2.26;85.80
54042;BME280;41156;51.508;5.406;2023-03-01T01:09:54;102967.03;;;-2.28;87.05
54042;BME280;41156;51.508;5.406;2023-03-01T01:12:54;102957.47;;;-2.31;86.66
54042;BME280;41156;51.508;5.406;2023-03-01T01:15:54;102966.25;;;-2.30;86.07
54042;BME280;41156;51.508;5.406;2023-03-01T01:18:55;102957.47;;;-2.31;86.34
54042;BME280;41156;51.508;5.406;2023-03-01T01:21:56;102952.31;;;-2.34;86.38
54042;BME280;41156;51.508;5.406;2023-03-01T01:24:56;102950.53;;;-2.33;86.94
54042;BME280;41156;51.508;5.406;2023-03-01T01:27:57;102947.19;;;-2.37;86.99
54042;BME280;41156;51.508;5.406;2023-03-01T01:30:57;102937.69;;;-2.41;88.01
54042;BME280;41156;51.508;5.406;2023-03-01T01:33:59;102928.09;;;-2.44;87.90
54042;BME280;41156;51.508;5.406;2023-03-01T01:37:00;102922.97;;;-2.47;87.99
54042;BME280;41156;51.508;5.406;2023-03-01T01:40:03;102919.53;;;-2.49;87.46
54042;BME280;41156;51.508;5.406;2023-03-01T01:46:29;102917.38;;;-2.58;88.41
54042;BME280;41156;51.508;5.406;2023-03-01T01:52:38;102914.88;;;-2.61;88.59
54042;BME280;41156;51.508;5.406;2023-03-01T01:55:45;102914.00;;;-2.62;88.68
54042;BME280;41156;51.508;5.406;2023-03-01T01:58:47;102910.66;;;-2.65;88.88
54042;BME280;41156;51.508;5.406;2023-03-01T02:01:47;102902.88;;;-2.68;88.59
54042;BME280;41156;51.508;5.406;2023-03-01T02:04:49;102900.41;;;-2.71;89.97
54042;BME280;41156;51.508;5.406;2023-03-01T02:07:53;102898.75;;;-2.74;88.40
54042;BME280;41156;51.508;5.406;2023-03-01T02:10:54;102895.34;;;-2.76;89.63
54042;BME280;41156;51.508;5.406;2023-03-01T02:13:56;102892.69;;;-2.76;89.77
54042;BME280;41156;51.508;5.406;2023-03-01T02:16:56;102893.69;;;-2.79;89.12
54042;BME280;41156;51.508;5.406;2023-03-01T02:23:07;102890.44;;;-2.84;89.12
54042;BME280;41156;51.508;5.406;2023-03-01T02:26:11;102880.88;;;-2.86;90.55
54042;BME280;41156;51.508;5.406;2023-03-01T02:29:17;102883.66;;;-2.89;90.34
54042;BME280;41156;51.508;5.406;2023-03-01T02:32:18;102885.63;;;-2.93;89.96
54042;BME280;41156;51.508;5.406;2023-03-01T02:35:24;102888.47;;;-2.98;89.13
54042;BME280;41156;51.508;5.406;2023-03-01T02:38:25;102885.97;;;-3.01;90.73
54042;BME280;41156;51.508;5.406;2023-03-01T02:41:27;102881.38;;;-2.97;92.25
54042;BME280;41156;51.508;5.406;2023-03-01T02:44:28;102880.25;;;-2.91;90.91
54042;BME280;41156;51.508;5.406;2023-03-01T02:47:28;102885.22;;;-2.85;90.20
54042;BME280;41156;51.508;5.406;2023-03-01T02:53:41;102895.50;;;-2.79;90.88
54042;BME280;41156;51.508;5.406;2023-03-01T02:56:45;102895.50;;;-2.79;89.49
54042;BME280;41156;51.508;5.406;2023-03-01T02:59:49;102890.13;;;-2.77;89.69
54042;BME280;41156;51.508;5.406;2023-03-01T03:02:52;102888.31;;;-2.77;91.68
54042;BME280;41156;51.508;5.406;2023-03-01T03:05:52;102885.69;;;-2.77;90.32
54042;BME280;41156;51.508;5.406;2023-03-01T03:08:52;102876.06;;;-2.78;89.68
54042;BME280;41156;51.508;5.406;2023-03-01T03:11:53;102882.19;;;-2.77;90.36
54042;BME280;41156;51.508;5.406;2023-03-01T03:14:53;102881.50;;;-2.81;90.38
54042;BME280;41156;51.508;5.406;2023-03-01T03:17:53;102887.78;;;-2.84;89.66
54042;BME280;41156;51.508;5.406;2023-03-01T03:20:54;102891.44;;;-2.86;90.99
54042;BME280;41156;51.508;5.406;2023-03-01T03:23:54;102883.66;;;-2.89;92.12
54042;BME280;41156;51.508;5.406;2023-03-01T03:26:55;102878.38;;;-2.89;90.78
54042;BME280;41156;51.508;5.406;2023-03-01T03:29:55;102877.50;;;-2.90;90.61
54042;BME280;41156;51.508;5.406;2023-03-01T03:32:56;102882.72;;;-2.88;90.92
54042;BME280;41156;51.508;5.406;2023-03-01T03:35:57;102879.22;;;-2.89;90.97
54042;BME280;41156;51.508;5.406;2023-03-01T03:38:57;102874.00;;;-2.90;92.07
54042;BME280;41156;51.508;5.406;2023-03-01T03:41:58;102874.84;;;-2.90;92.51
54042;BME280;41156;51.508;5.406;2023-03-01T03:44:58;102879.22;;;-2.89;91.05
54042;BME280;41156;51.508;5.406;2023-03-01T03:47:59;102873.84;;;-2.87;91.88
54042;BME280;41156;51.508;5.406;2023-03-01T03:51:00;102877.41;;;-2.88;90.58
54042;BME280;41156;51.508;5.406;2023-03-01T03:54:00;102877.34;;;-2.87;91.71
54042;BME280;41156;51.508;5.406;2023-03-01T03:57:01;102870.22;;;-2.85;91.73
54042;BME280;41156;51.508;5.406;2023-03-01T04:00:02;102876.34;;;-2.84;91.03
54042;BME280;41156;51.508;5.406;2023-03-01T04:03:05;102872.59;;;-2.80;91.79
54042;BME280;41156;51.508;5.406;2023-03-01T04:06:06;102865.47;;;-2.78;92.43
54042;BME280;41156;51.508;5.406;2023-03-01T04:09:06;102857.53;;;-2.78;92.02
54042;BME280;41156;51.508;5.406;2023-03-01T04:12:06;102854.00;;;-2.79;93.30
54042;BME280;41156;51.508;5.406;2023-03-01T04:15:07;102847.78;;;-2.77;91.84
54042;BME280;41156;51.508;5.406;2023-03-01T04:18:14;102845.22;;;-2.79;92.20
54042;BME280;41156;51.508;5.406;2023-03-01T04:21:15;102849.66;;;-2.80;91.39
54042;BME280;41156;51.508;5.406;2023-03-01T04:24:15;102850.50;;;-2.79;92.02
54042;BME280;41156;51.508;5.406;2023-03-01T04:27:16;102852.38;;;-2.81;94.65
54042;BME280;41156;51.508;5.406;2023-03-01T04:30:16;102842.66;;;-2.81;91.44
54042;BME280;41156;51.508;5.406;2023-03-01T04:33:17;102846.94;;;-2.78;93.17
54042;BME280;41156;51.508;5.406;2023-03-01T04:36:20;102837.28;;;-2.79;93.06
54042;BME280;41156;51.508;5.406;2023-03-01T04:39:21;102839.78;;;-2.76;93.63
54042;BME280;41156;51.508;5.406;2023-03-01T04:42:21;102837.13;;;-2.76;93.14
54042;BME280;41156;51.508;5.406;2023-03-01T04:45:22;102834.41;;;-2.74;93.04
54042;BME280;41156;51.508;5.406;2023-03-01T04:48:22;102822.16;;;-2.77;91.69
54042;BME280;41156;51.508;5.406;2023-03-01T04:51:23;102825.78;;;-2.78;92.67
54042;BME280;41156;51.508;5.406;2023-03-01T04:54:23;102822.25;;;-2.79;91.74
54042;BME280;41156;51.508;5.406;2023-03-01T04:57:23;102813.53;;;-2.81;91.47
54042;BME280;41156;51.508;5.406;2023-03-01T05:00:24;102809.34;;;-2.85;92.13
54042;BME280;41156;51.508;5.406;2023-03-01T05:03:24;102828.72;;;-2.84;92.33
54042;BME280;41156;51.508;5.406;2023-03-01T05:06:25;102822.75;;;-2.88;92.78
54042;BME280;41156;51.508;5.406;2023-03-01T05:09:25;102823.59;;;-2.87;92.20
54042;BME280;41156;51.508;5.406;2023-03-01T05:12:25;102822.88;;;-2.91;94.14
54042;BME280;41156;51.508;5.406;2023-03-01T05:15:27;102824.75;;;-2.93;92.83
54042;BME280;41156;51.508;5.406;2023-03-01T05:18:31;102824.91;;;-2.96;93.29
54042;BME280;41156;51.508;5.406;2023-03-01T05:21:32;102821.31;;;-2.95;93.66
54042;BME280;41156;51.508;5.406;2023-03-01T05:24:34;102813.38;;;-2.95;93.07
54042;BME280;41156;51.508;5.406;2023-03-01T05:27:35;102807.25;;;-2.95;92.41
54042;BME280;41156;51.508;5.406;2023-03-01T05:30:36;102796.03;;;-3.01;93.57
54042;BME280;41156;51.508;5.406;2023-03-01T05:33:40;102795.34;;;-3.04;93.64
54042;BME280;41156;51.508;5.406;2023-03-01T05:36:40;102794.66;;;-3.08;93.28
54042;BME280;41156;51.508;5.406;2023-03-01T05:39:41;102792.09;;;-3.09;93.51
54042;BME280;41156;51.508;5.406;2023-03-01T05:42:45;102776.38;;;-3.12;94.48
54042;BME280;41156;51.508;5.406;2023-03-01T05:45:46;102785.28;;;-3.15;93.89
54042;BME280;41156;51.508;5.406;2023-03-01T05:48:46;102780.25;;;-3.20;95.03
54042;BME280;41156;51.508;5.406;2023-03-01T05:51:50;102781.25;;;-3.22;94.54
54042;BME280;41156;51.508;5.406;2023-03-01T05:54:51;102787.47;;;-3.23;93.95
54042;BME280;41156;51.508;5.406;2023-03-01T05:57:51;102780.56;;;-3.26;94.56
54042;BME280;41156;51.508;5.406;2023-03-01T06:00:51;102778.84;;;-3.27;94.95
54042;BME280;41156;51.508;5.406;2023-03-01T06:03:51;102784.28;;;-3.30;96.74
54042;BME280;41156;51.508;5.406;2023-03-01T06:06:52;102778.06;;;-3.29;94.70
54042;BME280;41156;51.508;5.406;2023-03-01T06:09:52;102776.41;;;-3.31;95.55
54042;BME280;41156;51.508;5.406;2023-03-01T06:12:53;102780.88;;;-3.32;94.91
54042;BME280;41156;51.508;5.406;2023-03-01T06:15:53;102780.09;;;-3.34;94.73
54042;BME280;41156;51.508;5.406;2023-03-01T06:18:53;102780.16;;;-3.36;95.07
54042;BME280;41156;51.508;5.406;2023-03-01T06:21:54;102775.03;;;-3.39;94.23
54042;BME280;41156;51.508;5.406;2023-03-01T06:24:54;102782.13;;;-3.39;94.78
54042;BME280;41156;51.508;5.406;2023-03-01T06:27:54;102782.19;;;-3.41;94.70
54042;BME280;41156;51.508;5.406;2023-03-01T06:30:54;102786.44;;;-3.38;96.13
54042;BME280;41156;51.508;5.406;2023-03-01T06:33:55;102785.53;;;-3.37;97.52
54042;BME280;41156;51.508;5.406;2023-03-01T06:36:55;102786.22;;;-3.33;97.33
54042;BME280;41156;51.508;5.406;2023-03-01T06:39:55;102785.22;;;-3.31;95.96
54042;BME280;41156;51.508;5.406;2023-03-01T06:42:56;102795.66;;;-3.28;95.69
54042;BME280;41156;51.508;5.406;2023-03-01T06:45:56;102792.84;;;-3.25;97.18
54042;BME280;41156;51.508;5.406;2023-03-01T06:48:56;102792.75;;;-3.23;96.35
54042;BME280;41156;51.508;5.406;2023-03-01T06:51:57;102789.13;;;-3.21;95.97
54042;BME280;41156;51.508;5.406;2023-03-01T06:54:57;102787.16;;;-3.17;97.01
54042;BME280;41156;51.508;5.406;2023-03-01T06:57:59;102793.09;;;-3.12;97.27
54042;BME280;41156;51.508;5.406;2023-03-01T07:00:59;102787.63;;;-3.09;96.02
54042;BME280;41156;51.508;5.406;2023-03-01T07:04:00;102783.94;;;-3.05;96.29
54042;BME280;41156;51.508;5.406;2023-03-01T07:07:00;102774.88;;;-3.01;96.72
54042;BME280;41156;51.508;5.406;2023-03-01T07:10:01;102780.78;;;-2.95;97.15
54042;BME280;41156;51.508;5.406;2023-03-01T07:13:01;102770.81;;;-2.90;97.31
54042;BME280;41156;51.508;5.406;2023-03-01T07:16:02;102775.72;;;-2.83;95.55
54042;BME280;41156;51.508;5.406;2023-03-01T07:19:02;102778.91;;;-2.76;95.96
54042;BME280;41156;51.508;5.406;2023-03-01T07:22:03;102776.72;;;-2.68;95.56
54042;BME280;41156;51.508;5.406;2023-03-01T07:25:04;102791.09;;;-2.56;96.45
54042;BME280;41156;51.508;5.406;2023-03-01T07:28:05;102790.78;;;-2.50;95.63
54042;BME280;41156;51.508;5.406;2023-03-01T07:31:06;102803.59;;;-2.42;97.39
54042;BME280;41156;51.508;5.406;2023-03-01T07:34:06;102794.22;;;-2.32;95.98
54042;BME280;41156;51.508;5.406;2023-03-01T07:37:06;102792.69;;;-2.20;95.17
54042;BME280;41156;51.508;5.406;2023-03-01T07:40:07;102799.13;;;-2.08;94.84
54042;BME280;41156;51.508;5.406;2023-03-01T07:43:07;102788.09;;;-2.00;94.61
54042;BME280;41156;51.508;5.406;2023-03-01T07:46:08;102795.47;;;-1.90;94.48
54042;BME280;41156;51.508;5.406;2023-03-01T07:49:09;102793.03;;;-1.78;94.36
54042;BME280;41156;51.508;5.406;2023-03-01T07:52:11;102792.53;;;-1.69;94.40
54042;BME280;41156;51.508;5.406;2023-03-01T07:55:12;102795.44;;;-1.58;94.40
54042;BME280;41156;51.508;5.406;2023-03-01T07:58:12;102789.50;;;-1.47;94.19
54042;BME280;41156;51.508;5.406;2023-03-01T08:01:15;102784.53;;;-1.37;93.73
54042;BME280;41156;51.508;5.406;2023-03-01T08:04:16;102788.19;;;-1.24;93.03
54042;BME280;41156;51.508;5.406;2023-03-01T08:07:17;102784.03;;;-1.14;92.74
54042;BME280;41156;51.508;5.406;2023-03-01T08:10:17;102794.03;;;-1.03;92.44
54042;BME280;41156;51.508;5.406;2023-03-01T08:13:17;102795.19;;;-0.93;92.47
54042;BME280;41156;51.508;5.406;2023-03-01T08:16:22;102790.94;;;-0.81;91.99
54042;BME280;41156;51.508;5.406;2023-03-01T08:19:23;102792.09;;;-0.70;91.64
54042;BME280;41156;51.508;5.406;2023-03-01T08:22:24;102790.47;;;-0.59;91.58
54042;BME280;41156;51.508;5.406;2023-03-01T08:25:24;102794.19;;;-0.47;91.80
54042;BME280;41156;51.508;5.406;2023-03-01T08:28:24;102786.41;;;-0.35;91.97
54042;BME280;41156;51.508;5.406;2023-03-01T08:31:28;102785.56;;;-0.22;91.58
54042;BME280;41156;51.508;5.406;2023-03-01T08:34:29;102782.78;;;-0.06;91.28
54042;BME280;41156;51.508;5.406;2023-03-01T08:37:31;102784.06;;;0.16;92.08
54042;BME280;41156;51.508;5.406;2023-03-01T08:40:33;102780.00;;;0.38;92.37
54042;BME280;41156;51.508;5.406;2023-03-01T08:43:33;102782.09;;;0.60;92.40
54042;BME280;41156;51.508;5.406;2023-03-01T08:46:36;102777.06;;;0.82;91.87
54042;BME280;41156;51.508;5.406;2023-03-01T08:49:37;102768.66;;;1.01;89.95
54042;BME280;41156;51.508;5.406;2023-03-01T08:52:37;102762.06;;;1.20;91.44
54042;BME280;41156;51.508;5.406;2023-03-01T08:55:37;102751.00;;;1.39;90.66
54042;BME280;41156;51.508;5.406;2023-03-01T08:58:37;102752.38;;;1.57;90.54
54042;BME280;41156;51.508;5.406;2023-03-01T09:01:40;102764.38;;;1.76;88.88
54042;BME280;41156;51.508;5.406;2023-03-01T09:04:44;102765.09;;;1.91;88.27
54042;BME280;41156;51.508;5.406;2023-03-01T09:07:44;102753.19;;;2.08;88.60
54042;BME280;41156;51.508;5.406;2023-03-01T09:10:45;102751.97;;;2.25;86.33
54042;BME280;41156;51.508;5.406;2023-03-01T09:13:47;102745.72;;;2.37;86.62
54042;BME280;41156;51.508;5.406;2023-03-01T09:16:47;102747.47;;;2.49;80.33
54042;BME280;41156;51.508;5.406;2023-03-01T09:19:47;102745.81;;;2.59;81.94
54042;BME280;41156;51.508;5.406;2023-03-01T09:22:48;102739.78;;;2.69;80.67
54042;BME280;41156;51.508;5.406;2023-03-01T09:25:48;102736.66;;;2.75;79.97
54042;BME280;41156;51.508;5.406;2023-03-01T09:28:50;102733.16;;;2.86;79.63
54042;BME280;41156;51.508;5.406;2023-03-01T09:31:51;102741.94;;;2.99;77.91
54042;BME280;41156;51.508;5.406;2023-03-01T09:34:55;102724.22;;;3.09;76.55
54042;BME280;41156;51.508;5.406;2023-03-01T09:38:03;102726.66;;;3.24;78.87
54042;BME280;41156;51.508;5.406;2023-03-01T09:41:10;102725.94;;;3.33;74.00
54042;BME280;41156;51.508;5.406;2023-03-01T09:47:26;102720.34;;;3.59;77.75
54042;BME280;41156;51.508;5.406;2023-03-01T09:50:33;102718.75;;;3.67;73.72
54042;BME280;41156;51.508;5.406;2023-03-01T09:53:35;102720.69;;;3.77;75.15
54042;BME280;41156;51.508;5.406;2023-03-01T09:57:00;102715.94;;;3.80;72.56
54042;BME280;41156;51.508;5.406;2023-03-01T10:03:24;102706.06;;;3.92;67.17
54042;BME280;41156;51.508;5.406;2023-03-01T10:06:26;102691.97;;;4.01;68.90
54042;BME280;41156;51.508;5.406;2023-03-01T10:09:29;102693.38;;;4.05;67.68
54042;BME280;41156;51.508;5.406;2023-03-01T10:12:38;102688.16;;;4.04;69.03
54042;BME280;41156;51.508;5.406;2023-03-01T10:15:45;102679.06;;;4.06;66.77
54042;BME280;41156;51.508;5.406;2023-03-01T10:18:53;102674.63;;;4.17;64.66
54042;BME280;41156;51.508;5.406;2023-03-01T10:21:57;102674.50;;;4.39;69.81
54042;BME280;41156;51.508;5.406;2023-03-01T10:25:03;102664.22;;;4.56;67.56
54042;BME280;41156;51.508;5.406;2023-03-01T10:28:17;102654.03;;;4.71;67.17
54042;BME280;41156;51.508;5.406;2023-03-01T10:31:26;102652.97;;;4.83;67.69
54042;BME280;41156;51.508;5.406;2023-03-01T10:34:32;102647.38;;;4.96;69.65
54042;BME280;41156;51.508;5.406;2023-03-01T10:37:33;102641.94;;;5.07;66.75
54042;BME280;41156;51.508;5.406;2023-03-01T10:40:35;102651.44;;;5.11;68.22
54042;BME280;41156;51.508;5.406;2023-03-01T10:43:58;102656.22;;;5.17;65.35
54042;BME280;41156;51.508;5.406;2023-03-01T10:47:00;102641.84;;;5.18;61.78
54042;BME280;41156;51.508;5.406;2023-03-01T10:50:06;102643.00;;;5.26;66.13
54042;BME280;41156;51.508;5.406;2023-03-01T10:53:33;102641.50;;;5.33;64.79
54042;BME280;41156;51.508;5.406;2023-03-01T10:56:46;102630.94;;;5.51;59.26
54042;BME280;41156;51.508;5.406;2023-03-01T11:00:01;102650.16;;;5.66;59.71
54042;BME280;41156;51.508;5.406;2023-03-01T11:03:11;102641.00;;;5.68;60.17
54042;BME280;41156;51.508;5.406;2023-03-01T11:09:19;102648.22;;;5.78;59.71
54042;BME280;41156;51.508;5.406;2023-03-01T11:12:20;102638.38;;;5.88;58.18
54042;BME280;41156;51.508;5.406;2023-03-01T11:15:28;102642.91;;;5.97;57.63
54042;BME280;41156;51.508;5.406;2023-03-01T11:18:30;102643.19;;;6.04;59.62
54042;BME280;41156;51.508;5.406;2023-03-01T11:21:32;102633.88;;;6.08;62.87
54042;BME280;41156;51.508;5.406;2023-03-01T11:27:41;102644.59;;;6.27;61.22
54042;BME280;41156;51.508;5.406;2023-03-01T11:33:59;102640.66;;;6.32;60.07
54042;BME280;41156;51.508;5.406;2023-03-01T11:37:02;102647.13;;;6.39;57.28
54042;BME280;41156;51.508;5.406;2023-03-01T11:40:25;102638.94;;;6.40;59.14
54042;BME280;41156;51.508;5.406;2023-03-01T11:50:42;102612.75;;;6.62;56.47
54042;BME280;41156;51.508;5.406;2023-03-01T11:53:55;102613.84;;;6.69;54.52
54042;BME280;41156;51.508;5.406;2023-03-01T11:57:33;102611.44;;;6.76;55.07
54042;BME280;41156;51.508;5.406;2023-03-01T12:01:02;102603.59;;;6.92;58.89
54042;BME280;41156;51.508;5.406;2023-03-01T12:08:09;102598.09;;;7.21;56.03
54042;BME280;41156;51.508;5.406;2023-03-01T12:14:55;102597.38;;;7.47;56.58
54042;BME280;41156;51.508;5.406;2023-03-01T12:31:39;102573.56;;;7.70;56.55
54042;BME280;41156;51.508;5.406;2023-03-01T12:35:05;102564.88;;;7.76;57.24
54042;BME280;41156;51.508;5.406;2023-03-01T12:38:33;102566.19;;;7.72;58.12
54042;BME280;41156;51.508;5.406;2023-03-01T12:42:01;102570.97;;;7.78;57.40
54042;BME280;41156;51.508;5.406;2023-03-01T12:45:29;102566.25;;;7.81;55.79
54042;BME280;41156;51.508;5.406;2023-03-01T12:48:58;102554.50;;;7.82;56.64
54042;BME280;41156;51.508;5.406;2023-03-01T12:55:28;102554.94;;;7.95;52.73
54042;BME280;41156;51.508;5.406;2023-03-01T13:01:42;102540.94;;;8.09;53.45
54042;BME280;41156;51.508;5.406;2023-03-01T13:08:27;102529.59;;;8.24;55.10
54042;BME280;41156;51.508;5.406;2023-03-01T13:11:30;102518.19;;;8.30;54.74
54042;BME280;41156;51.508;5.406;2023-03-01T13:17:41;102503.69;;;8.31;52.00
54042;BME280;41156;51.508;5.406;2023-03-01T13:23:47;102493.44;;;8.26;50.80
54042;BME280;41156;51.508;5.406;2023-03-01T13:27:09;102498.16;;;8.32;52.85
54042;BME280;41156;51.508;5.406;2023-03-01T13:33:48;102479.25;;;8.24;51.22
54042;BME280;41156;51.508;5.406;2023-03-01T13:36:49;102475.72;;;8.24;53.40
54042;BME280;41156;51.508;5.406;2023-03-01T13:39:49;102471.50;;;8.21;50.38
54042;BME280;41156;51.508;5.406;2023-03-01T13:42:52;102464.59;;;8.19;52.98
54042;BME280;41156;51.508;5.406;2023-03-01T13:45:52;102459.66;;;8.14;53.54
54042;BME280;41156;51.508;5.406;2023-03-01T13:48:54;102449.25;;;8.19;51.03
54042;BME280;41156;51.508;5.406;2023-03-01T13:51:56;102436.16;;;8.16;51.69
54042;BME280;41156;51.508;5.406;2023-03-01T13:54:58;102438.94;;;8.06;53.63
54042;BME280;41156;51.508;5.406;2023-03-01T13:58:00;102434.56;;;8.05;52.81
54042;BME280;41156;51.508;5.406;2023-03-01T14:01:04;102426.06;;;7.92;52.95
54042;BME280;41156;51.508;5.406;2023-03-01T14:04:25;102434.16;;;7.74;53.05
54042;BME280;41156;51.508;5.406;2023-03-01T14:07:28;102432.91;;;7.60;53.01
54042;BME280;41156;51.508;5.406;2023-03-01T14:10:47;102429.69;;;7.38;52.39
54042;BME280;41156;51.508;5.406;2023-03-01T14:14:04;102434.63;;;7.25;52.97
54042;BME280;41156;51.508;5.406;2023-03-01T14:17:14;102436.31;;;7.26;53.84
54042;BME280;41156;51.508;5.406;2023-03-01T14:20:25;102421.09;;;7.17;54.16
54042;BME280;41156;51.508;5.406;2023-03-01T14:23:26;102425.25;;;7.11;55.00
54042;BME280;41156;51.508;5.406;2023-03-01T14:26:27;102428.78;;;7.12;54.77
54042;BME280;41156;51.508;5.406;2023-03-01T14:29:34;102420.63;;;7.03;52.90
54042;BME280;41156;51.508;5.406;2023-03-01T14:32:35;102421.91;;;6.99;54.00
54042;BME280;41156;51.508;5.406;2023-03-01T14:35:36;102416.53;;;6.99;54.34
54042;BME280;41156;51.508;5.406;2023-03-01T14:38:42;102413.03;;;6.99;52.46
54042;BME280;41156;51.508;5.406;2023-03-01T14:41:42;102415.03;;;6.97;54.08
54042;BME280;41156;51.508;5.406;2023-03-01T14:44:46;102409.66;;;6.97;52.74
54042;BME280;41156;51.508;5.406;2023-03-01T14:47:47;102406.28;;;6.95;53.12
54042;BME280;41156;51.508;5.406;2023-03-01T14:50:48;102399.19;;;6.94;54.00
54042;BME280;41156;51.508;5.406;2023-03-01T14:53:50;102395.97;;;6.90;54.09
54042;BME280;41156;51.508;5.406;2023-03-01T14:56:57;102384.25;;;6.91;54.17
54042;BME280;41156;51.508;5.406;2023-03-01T14:59:59;102374.94;;;6.85;54.14
54042;BME280;41156;51.508;5.406;2023-03-01T15:03:16;102369.56;;;6.85;53.90
54042;BME280;41156;51.508;5.406;2023-03-01T15:06:22;102372.41;;;6.84;53.24
54042;BME280;41156;51.508;5.406;2023-03-01T15:09:22;102369.56;;;6.85;55.14
54042;BME280;41156;51.508;5.406;2023-03-01T15:15:38;102366.94;;;6.76;54.61
54042;BME280;41156;51.508;5.406;2023-03-01T15:18:46;102360.88;;;6.74;53.83
54042;BME280;41156;51.508;5.406;2023-03-01T15:21:49;102371.91;;;6.71;54.23
54042;BME280;41156;51.508;5.406;2023-03-01T15:24:50;102369.22;;;6.71;53.90
54042;BME280;41156;51.508;5.406;2023-03-01T15:27:52;102365.41;;;6.73;54.81
54042;BME280;41156;51.508;5.406;2023-03-01T15:31:04;102368.25;;;6.72;54.08
54042;BME280;41156;51.508;5.406;2023-03-01T15:34:21;102372.78;;;6.71;53.86
54042;BME280;41156;51.508;5.406;2023-03-01T15:37:45;102360.78;;;6.65;54.41
54042;BME280;41156;51.508;5.406;2023-03-01T15:40:51;102363.91;;;6.61;54.13
54042;BME280;41156;51.508;5.406;2023-03-01T15:43:52;102358.31;;;6.54;55.10
54042;BME280;41156;51.508;5.406;2023-03-01T15:46:56;102363.59;;;6.46;54.55
54042;BME280;41156;51.508;5.406;2023-03-01T15:49:58;102354.59;;;6.37;54.38
54042;BME280;41156;51.508;5.406;2023-03-01T15:53:01;102362.00;;;6.25;54.41
54042;BME280;41156;51.508;5.406;2023-03-01T15:56:04;102361.75;;;6.19;55.54
54042;BME280;41156;51.508;5.406;2023-03-01T15:59:09;102358.13;;;6.10;55.95
54042;BME280;41156;51.508;5.406;2023-03-01T16:02:12;102364.09;;;6.04;56.46
54042;BME280;41156;51.508;5.406;2023-03-01T16:05:20;102348.72;;;5.96;56.74
54042;BME280;41156;51.508;5.406;2023-03-01T16:08:21;102343.38;;;5.86;56.02
54042;BME280;41156;51.508;5.406;2023-03-01T16:11:21;102341.97;;;5.82;56.87
54042;BME280;41156;51.508;5.406;2023-03-01T16:14:22;102343.56;;;5.75;56.66
54042;BME280;41156;51.508;5.406;2023-03-01T16:17:22;102347.78;;;5.68;56.87
54042;BME280;41156;51.508;5.406;2023-03-01T16:20:22;102335.81;;;5.62;57.70
54042;BME280;41156;51.508;5.406;2023-03-01T16:23:23;102326.53;;;5.56;57.34
54042;BME280;41156;51.508;5.406;2023-03-01T16:26:25;102325.25;;;5.51;57.30
54042;BME280;41156;51.508;5.406;2023-03-01T16:29:25;102326.69;;;5.45;57.91
54042;BME280;41156;51.508;5.406;2023-03-01T16:32:26;102319.22;;;5.39;57.91
54042;BME280;41156;51.508;5.406;2023-03-01T16:35:26;102325.31;;;5.31;58.42
54042;BME280;41156;51.508;5.406;2023-03-01T16:38:28;102332.09;;;5.26;58.61
54042;BME280;41156;51.508;5.406;2023-03-01T16:41:28;102328.44;;;5.17;58.45
54042;BME280;41156;51.508;5.406;2023-03-01T16:44:29;102316.59;;;5.10;58.86
54042;BME280;41156;51.508;5.406;2023-03-01T16:47:30;102333.25;;;5.04;58.94
54042;BME280;41156;51.508;5.406;2023-03-01T16:50:30;102327.59;;;4.97;59.42
54042;BME280;41156;51.508;5.406;2023-03-01T16:53:31;102331.97;;;4.88;59.27
54042;BME280;41156;51.508;5.406;2023-03-01T16:56:32;102329.72;;;4.84;59.62
54042;BME280;41156;51.508;5.406;2023-03-01T16:59:34;102329.56;;;4.75;59.49
54042;BME280;41156;51.508;5.406;2023-03-01T17:02:35;102330.25;;;4.68;59.62
54042;BME280;41156;51.508;5.406;2023-03-01T17:05:39;102325.47;;;4.61;59.73
54042;BME280;41156;51.508;5.406;2023-03-01T17:08:40;102324.47;;;4.53;60.29
54042;BME280;41156;51.508;5.406;2023-03-01T17:11:41;102330.38;;;4.47;60.10
54042;BME280;41156;51.508;5.406;2023-03-01T17:14:42;102329.22;;;4.39;60.42
54042;BME280;41156;51.508;5.406;2023-03-01T17:17:42;102334.41;;;4.31;60.83
54042;BME280;41156;51.508;5.406;2023-03-01T17:20:43;102326.53;;;4.20;60.85
54042;BME280;41156;51.508;5.406;2023-03-01T17:23:44;102329.72;;;4.14;61.23